Loiza, PR (00772)

7:54 PM AST on May 25, 2015 (GMT -0400)
Ciudad Jardin | | Change Station
CLOSE
Current Station
Personal Weather Station
Location: Carolina, PR
Elevation: 10 ft
Nearby Weather Stations

Elev 10 ft 18.37 °N, 65.93 °W | Updated 10 minutes ago

Scattered Clouds
Scattered Clouds
80.9 °F
Feels Like 86 °F
N
3.0
Wind Variable Wind from NE
Gusts 7.0 mph

Today
High -- | Low -- °F
--% Chance of Precip.
Yesterday
High -- | Low -- °F
Precip. -- in
5:47 AM 6:53 PM
First Quarter, 53% visible
Pressure 30.04 in
Visibility 9.0 miles
Clouds Scattered Clouds 2200 ft
Scattered Clouds 12000 ft
Heat Index 86 °F
Dew Point 74 °F
Humidity 79%
Rainfall 0.00 in
Snow Depth Not available.
UV 0 out of 12
Pollen Not available.
Air Quality Not available.
Flu Activity Local Activity
METAR TJSJ 252256Z 06011KT 9SM SCT022 SCT120 27/23 A3004 RMK AO2 SLP172 HZ ALQDS T02720233

More Conditions Fewer Conditions

Pressure 30.04 in
Visibility 9.0 miles
Clouds Scattered Clouds 2200 ft
Scattered Clouds 12000 ft
Heat Index 86 °F
Dew Point 74 °F
Humidity 79%
Rainfall 0.00 in
Snow Depth Not available.
UV 0 out of 12
Pollen Not available.
Air Quality Not available.
Flu Activity Local Activity
METAR TJSJ 252256Z 06011KT 9SM SCT022 SCT120 27/23 A3004 RMK AO2 SLP172 HZ ALQDS T02720233

More Conditions Fewer Conditions

10-Day Weather Forecast

Almanac

Astronomy

May. 25, 2015 Rise Set
Actual Time
Civil Twilight
Nautical Twilight
Astronomical Twilight
Moon
Length of Visible Light
Length of Day
Tomorrow will be .
, % of the Moon is Illuminated

Today's Extremes

State Highs State Lows

Community

WunderPhotos

Upload Photos

1,824,173 photos uploaded!

WunderBlogs® & News

Nearby

Air Quality

  Air Quality AQ Index Pollutant
Not available.

Snow Depth

Station Depth Elevation

Earthquake Activity

City Distance Mag. Time & Date
Minimum magnitude displayed is 2.5.

Coastal Water Temperatures

Place Temperature

Stations

Nearby Weather Stations

Station Location Temp. Windchill Dew Point Humidity Wind Precip. Elev Updated Type